sensor_id;sensor_type;location;lat;lon;timestamp;P1;durP1;ratioP1;P2;durP2;ratioP2
17606;SDS011;69222;52.242;20.980;2023-07-31T00:00:54;1.33;;;1.20;;
17606;SDS011;69222;52.242;20.980;2023-07-31T00:03:22;1.50;;;1.40;;
17606;SDS011;69222;52.242;20.980;2023-07-31T00:05:51;1.42;;;1.33;;
17606;SDS011;69222;52.242;20.980;2023-07-31T00:08:19;1.48;;;1.38;;
17606;SDS011;69222;52.242;20.980;2023-07-31T00:10:50;1.60;;;1.38;;
17606;SDS011;69222;52.242;20.980;2023-07-31T00:13:19;2.72;;;1.25;;
17606;SDS011;69222;52.242;20.980;2023-07-31T00:15:47;1.65;;;1.55;;
17606;SDS011;69222;52.242;20.980;2023-07-31T00:18:15;3.47;;;1.50;;
17606;SDS011;69222;52.242;20.980;2023-07-31T00:20:43;1.35;;;1.25;;
17606;SDS011;69222;52.242;20.980;2023-07-31T00:23:12;1.38;;;1.27;;
17606;SDS011;69222;52.242;20.980;2023-07-31T00:25:41;1.50;;;1.40;;
17606;SDS011;69222;52.242;20.980;2023-07-31T00:28:09;2.00;;;1.75;;
17606;SDS011;69222;52.242;20.980;2023-07-31T00:30:38;2.35;;;1.63;;
17606;SDS011;69222;52.242;20.980;2023-07-31T00:33:06;1.92;;;1.73;;
17606;SDS011;69222;52.242;20.980;2023-07-31T00:35:34;1.80;;;1.65;;
17606;SDS011;69222;52.242;20.980;2023-07-31T00:38:01;1.40;;;1.27;;
17606;SDS011;69222;52.242;20.980;2023-07-31T00:40:31;1.42;;;1.33;;
17606;SDS011;69222;52.242;20.980;2023-07-31T00:43:02;1.45;;;1.35;;
17606;SDS011;69222;52.242;20.980;2023-07-31T00:45:30;2.55;;;1.55;;
17606;SDS011;69222;52.242;20.980;2023-07-31T00:48:00;2.20;;;1.55;;
17606;SDS011;69222;52.242;20.980;2023-07-31T00:50:28;1.45;;;1.35;;
17606;SDS011;69222;52.242;20.980;2023-07-31T00:52:57;2.08;;;1.50;;
17606;SDS011;69222;52.242;20.980;2023-07-31T00:55:25;1.50;;;1.40;;
17606;SDS011;69222;52.242;20.980;2023-07-31T00:57:55;1.92;;;1.45;;
17606;SDS011;69222;52.242;20.980;2023-07-31T01:00:24;1.65;;;1.40;;
17606;SDS011;69222;52.242;20.980;2023-07-31T01:02:52;1.60;;;1.50;;
17606;SDS011;69222;52.242;20.980;2023-07-31T01:05:21;2.15;;;1.45;;
17606;SDS011;69222;52.242;20.980;2023-07-31T01:07:59;5.47;;;1.40;;
17606;SDS011;69222;52.242;20.980;2023-07-31T01:10:34;1.90;;;1.75;;
17606;SDS011;69222;52.242;20.980;2023-07-31T01:13:12;2.47;;;1.50;;
17606;SDS011;69222;52.242;20.980;2023-07-31T01:15:40;1.50;;;1.40;;
17606;SDS011;69222;52.242;20.980;2023-07-31T01:18:08;2.00;;;1.60;;
17606;SDS011;69222;52.242;20.980;2023-07-31T01:20:36;1.80;;;1.70;;
17606;SDS011;69222;52.242;20.980;2023-07-31T01:31:50;1.58;;;1.48;;
17606;SDS011;69222;52.242;20.980;2023-07-31T01:34:23;2.67;;;1.48;;
17606;SDS011;69222;52.242;20.980;2023-07-31T01:36:52;1.42;;;1.30;;
17606;SDS011;69222;52.242;20.980;2023-07-31T01:39:21;1.70;;;1.55;;
17606;SDS011;69222;52.242;20.980;2023-07-31T01:41:49;1.80;;;1.70;;
17606;SDS011;69222;52.242;20.980;2023-07-31T01:44:17;2.50;;;1.70;;
17606;SDS011;69222;52.242;20.980;2023-07-31T01:46:45;2.67;;;1.80;;
17606;SDS011;69222;52.242;20.980;2023-07-31T01:49:14;1.88;;;1.77;;
17606;SDS011;69222;52.242;20.980;2023-07-31T01:51:42;1.90;;;1.70;;
17606;SDS011;69222;52.242;20.980;2023-07-31T01:54:10;4.72;;;1.77;;
17606;SDS011;69222;52.242;20.980;2023-07-31T01:56:39;2.55;;;1.85;;
17606;SDS011;69222;52.242;20.980;2023-07-31T01:59:07;2.30;;;2.10;;
17606;SDS011;69222;52.242;20.980;2023-07-31T02:01:35;3.55;;;1.83;;
17606;SDS011;69222;52.242;20.980;2023-07-31T02:04:03;1.90;;;1.75;;
17606;SDS011;69222;52.242;20.980;2023-07-31T02:06:32;2.15;;;1.95;;
17606;SDS011;69222;52.242;20.980;2023-07-31T02:09:00;1.80;;;1.70;;
17606;SDS011;69222;52.242;20.980;2023-07-31T02:11:29;2.20;;;2.00;;
17606;SDS011;69222;52.242;20.980;2023-07-31T02:13:56;2.10;;;1.90;;
17606;SDS011;69222;52.242;20.980;2023-07-31T02:16:24;2.00;;;1.80;;
17606;SDS011;69222;52.242;20.980;2023-07-31T02:18:52;2.33;;;2.08;;
17606;SDS011;69222;52.242;20.980;2023-07-31T02:21:20;2.00;;;1.80;;
17606;SDS011;69222;52.242;20.980;2023-07-31T02:23:50;1.95;;;1.75;;
17606;SDS011;69222;52.242;20.980;2023-07-31T02:26:18;3.20;;;1.67;;
17606;SDS011;69222;52.242;20.980;2023-07-31T02:28:46;2.28;;;2.08;;
17606;SDS011;69222;52.242;20.980;2023-07-31T02:31:14;4.03;;;2.20;;
17606;SDS011;69222;52.242;20.980;2023-07-31T02:33:42;2.80;;;2.25;;
17606;SDS011;69222;52.242;20.980;2023-07-31T02:36:10;2.60;;;2.40;;
17606;SDS011;69222;52.242;20.980;2023-07-31T02:38:38;2.40;;;2.20;;
17606;SDS011;69222;52.242;20.980;2023-07-31T02:41:07;2.30;;;2.10;;
17606;SDS011;69222;52.242;20.980;2023-07-31T02:43:35;2.83;;;2.40;;
17606;SDS011;69222;52.242;20.980;2023-07-31T02:46:03;2.63;;;2.20;;
17606;SDS011;69222;52.242;20.980;2023-07-31T02:48:31;4.07;;;2.70;;
17606;SDS011;69222;52.242;20.980;2023-07-31T02:50:59;2.55;;;2.20;;
17606;SDS011;69222;52.242;20.980;2023-07-31T02:53:27;4.22;;;2.38;;
17606;SDS011;69222;52.242;20.980;2023-07-31T02:55:55;6.28;;;2.45;;
17606;SDS011;69222;52.242;20.980;2023-07-31T02:58:25;2.95;;;2.50;;
17606;SDS011;69222;52.242;20.980;2023-07-31T03:00:53;2.70;;;2.50;;
17606;SDS011;69222;52.242;20.980;2023-07-31T03:03:21;3.20;;;2.90;;
17606;SDS011;69222;52.242;20.980;2023-07-31T03:05:49;3.40;;;2.45;;
17606;SDS011;69222;52.242;20.980;2023-07-31T03:08:17;3.20;;;2.38;;
17606;SDS011;69222;52.242;20.980;2023-07-31T03:10:45;3.83;;;2.10;;
17606;SDS011;69222;52.242;20.980;2023-07-31T03:13:13;4.30;;;2.50;;
17606;SDS011;69222;52.242;20.980;2023-07-31T03:15:43;4.18;;;2.25;;
17606;SDS011;69222;52.242;20.980;2023-07-31T03:18:13;3.10;;;2.35;;
17606;SDS011;69222;52.242;20.980;2023-07-31T03:20:43;3.42;;;2.10;;
17606;SDS011;69222;52.242;20.980;2023-07-31T03:23:11;3.10;;;2.25;;
17606;SDS011;69222;52.242;20.980;2023-07-31T03:25:41;2.45;;;2.00;;
17606;SDS011;69222;52.242;20.980;2023-07-31T03:28:23;4.90;;;2.70;;
17606;SDS011;69222;52.242;20.980;2023-07-31T03:30:53;2.55;;;2.35;;
17606;SDS011;69222;52.242;20.980;2023-07-31T03:33:21;2.85;;;2.20;;
17606;SDS011;69222;52.242;20.980;2023-07-31T03:35:49;3.67;;;2.47;;
17606;SDS011;69222;52.242;20.980;2023-07-31T03:38:17;2.60;;;2.40;;
17606;SDS011;69222;52.242;20.980;2023-07-31T03:40:45;2.53;;;2.33;;
17606;SDS011;69222;52.242;20.980;2023-07-31T03:43:14;2.17;;;2.08;;
17606;SDS011;69222;52.242;20.980;2023-07-31T03:45:43;4.28;;;2.30;;
17606;SDS011;69222;52.242;20.980;2023-07-31T03:48:13;2.33;;;2.15;;
17606;SDS011;69222;52.242;20.980;2023-07-31T03:50:42;3.30;;;2.30;;
17606;SDS011;69222;52.242;20.980;2023-07-31T03:53:10;4.25;;;2.17;;
17606;SDS011;69222;52.242;20.980;2023-07-31T03:55:38;3.72;;;2.25;;
17606;SDS011;69222;52.242;20.980;2023-07-31T03:58:06;3.40;;;2.50;;
17606;SDS011;69222;52.242;20.980;2023-07-31T04:00:34;2.63;;;2.35;;
17606;SDS011;69222;52.242;20.980;2023-07-31T04:03:02;2.75;;;2.45;;
17606;SDS011;69222;52.242;20.980;2023-07-31T04:05:32;2.50;;;2.22;;
17606;SDS011;69222;52.242;20.980;2023-07-31T04:08:00;2.10;;;1.90;;
17606;SDS011;69222;52.242;20.980;2023-07-31T04:10:28;3.40;;;2.25;;
17606;SDS011;69222;52.242;20.980;2023-07-31T04:12:59;4.65;;;2.30;;
17606;SDS011;69222;52.242;20.980;2023-07-31T04:15:27;3.47;;;2.30;;
17606;SDS011;69222;52.242;20.980;2023-07-31T04:17:55;4.90;;;2.22;;
17606;SDS011;69222;52.242;20.980;2023-07-31T04:20:23;3.88;;;2.42;;
17606;SDS011;69222;52.242;20.980;2023-07-31T04:22:53;3.60;;;2.47;;
17606;SDS011;69222;52.242;20.980;2023-07-31T04:25:21;4.32;;;2.13;;
17606;SDS011;69222;52.242;20.980;2023-07-31T04:27:48;5.00;;;2.30;;
17606;SDS011;69222;52.242;20.980;2023-07-31T04:30:17;3.88;;;2.30;;
17606;SDS011;69222;52.242;20.980;2023-07-31T04:32:45;2.17;;;2.00;;
17606;SDS011;69222;52.242;20.980;2023-07-31T04:35:13;2.95;;;2.35;;
17606;SDS011;69222;52.242;20.980;2023-07-31T04:37:41;2.30;;;2.10;;
17606;SDS011;69222;52.242;20.980;2023-07-31T04:40:11;2.97;;;2.42;;
17606;SDS011;69222;52.242;20.980;2023-07-31T04:42:39;4.28;;;2.00;;
17606;SDS011;69222;52.242;20.980;2023-07-31T04:45:08;3.40;;;2.13;;
17606;SDS011;69222;52.242;20.980;2023-07-31T04:47:36;3.60;;;2.50;;
17606;SDS011;69222;52.242;20.980;2023-07-31T04:50:05;3.80;;;2.33;;
17606;SDS011;69222;52.242;20.980;2023-07-31T04:52:33;3.50;;;2.20;;
17606;SDS011;69222;52.242;20.980;2023-07-31T04:55:02;5.43;;;2.45;;
17606;SDS011;69222;52.242;20.980;2023-07-31T04:57:31;4.88;;;2.33;;
17606;SDS011;69222;52.242;20.980;2023-07-31T04:59:59;2.80;;;2.20;;
17606;SDS011;69222;52.242;20.980;2023-07-31T05:02:27;3.65;;;2.42;;
17606;SDS011;69222;52.242;20.980;2023-07-31T05:04:55;2.88;;;2.47;;
17606;SDS011;69222;52.242;20.980;2023-07-31T05:07:24;4.75;;;2.53;;
17606;SDS011;69222;52.242;20.980;2023-07-31T05:09:51;3.35;;;2.35;;
17606;SDS011;69222;52.242;20.980;2023-07-31T05:12:22;2.83;;;2.53;;
17606;SDS011;69222;52.242;20.980;2023-07-31T05:14:54;2.55;;;2.35;;
17606;SDS011;69222;52.242;20.980;2023-07-31T05:17:22;4.40;;;2.60;;
17606;SDS011;69222;52.242;20.980;2023-07-31T05:19:51;2.80;;;2.45;;
17606;SDS011;69222;52.242;20.980;2023-07-31T05:22:18;3.28;;;2.75;;
17606;SDS011;69222;52.242;20.980;2023-07-31T05:24:47;4.75;;;2.58;;
17606;SDS011;69222;52.242;20.980;2023-07-31T05:27:15;6.10;;;2.25;;
17606;SDS011;69222;52.242;20.980;2023-07-31T05:29:44;4.38;;;2.50;;
17606;SDS011;69222;52.242;20.980;2023-07-31T05:32:14;3.45;;;2.38;;
17606;SDS011;69222;52.242;20.980;2023-07-31T05:34:42;3.22;;;2.13;;
17606;SDS011;69222;52.242;20.980;2023-07-31T05:37:10;4.35;;;2.15;;
17606;SDS011;69222;52.242;20.980;2023-07-31T05:39:38;5.25;;;2.42;;
17606;SDS011;69222;52.242;20.980;2023-07-31T05:42:06;4.85;;;2.47;;
17606;SDS011;69222;52.242;20.980;2023-07-31T05:44:34;2.65;;;2.45;;
17606;SDS011;69222;52.242;20.980;2023-07-31T05:47:02;3.25;;;2.15;;
17606;SDS011;69222;52.242;20.980;2023-07-31T05:49:32;3.75;;;2.13;;
17606;SDS011;69222;52.242;20.980;2023-07-31T05:52:00;3.03;;;2.30;;
17606;SDS011;69222;52.242;20.980;2023-07-31T05:54:28;6.03;;;2.47;;
17606;SDS011;69222;52.242;20.980;2023-07-31T05:56:56;2.55;;;1.70;;
17606;SDS011;69222;52.242;20.980;2023-07-31T05:59:24;3.22;;;2.05;;
17606;SDS011;69222;52.242;20.980;2023-07-31T06:01:52;2.63;;;1.88;;
17606;SDS011;69222;52.242;20.980;2023-07-31T06:04:20;6.90;;;2.38;;
17606;SDS011;69222;52.242;20.980;2023-07-31T06:06:52;3.05;;;2.00;;
17606;SDS011;69222;52.242;20.980;2023-07-31T06:09:20;4.55;;;2.50;;
17606;SDS011;69222;52.242;20.980;2023-07-31T06:11:49;2.60;;;1.92;;
17606;SDS011;69222;52.242;20.980;2023-07-31T06:14:17;4.05;;;2.10;;
17606;SDS011;69222;52.242;20.980;2023-07-31T06:16:45;1.98;;;1.70;;
17606;SDS011;69222;52.242;20.980;2023-07-31T06:19:13;2.65;;;2.20;;
17606;SDS011;69222;52.242;20.980;2023-07-31T06:21:41;2.55;;;2.00;;
17606;SDS011;69222;52.242;20.980;2023-07-31T06:24:11;5.82;;;2.35;;
17606;SDS011;69222;52.242;20.980;2023-07-31T06:26:39;3.50;;;2.30;;
17606;SDS011;69222;52.242;20.980;2023-07-31T06:29:08;1.80;;;1.65;;
17606;SDS011;69222;52.242;20.980;2023-07-31T06:31:36;3.72;;;2.15;;
17606;SDS011;69222;52.242;20.980;2023-07-31T06:34:05;2.60;;;2.10;;
17606;SDS011;69222;52.242;20.980;2023-07-31T06:36:33;2.83;;;2.05;;
17606;SDS011;69222;52.242;20.980;2023-07-31T06:39:01;2.65;;;2.45;;
17606;SDS011;69222;52.242;20.980;2023-07-31T06:41:31;4.80;;;2.50;;
17606;SDS011;69222;52.242;20.980;2023-07-31T06:43:59;3.20;;;2.45;;
17606;SDS011;69222;52.242;20.980;2023-07-31T06:46:27;3.42;;;2.17;;
17606;SDS011;69222;52.242;20.980;2023-07-31T06:48:55;4.35;;;2.35;;
17606;SDS011;69222;52.242;20.980;2023-07-31T06:51:23;4.10;;;2.33;;
17606;SDS011;69222;52.242;20.980;2023-07-31T06:53:51;3.88;;;2.45;;
17606;SDS011;69222;52.242;20.980;2023-07-31T06:56:19;3.75;;;2.08;;
17606;SDS011;69222;52.242;20.980;2023-07-31T06:58:49;4.03;;;2.47;;
17606;SDS011;69222;52.242;20.980;2023-07-31T07:01:17;3.50;;;2.30;;
17606;SDS011;69222;52.242;20.980;2023-07-31T07:03:45;2.67;;;2.30;;
17606;SDS011;69222;52.242;20.980;2023-07-31T07:06:13;8.18;;;2.90;;
17606;SDS011;69222;52.242;20.980;2023-07-31T07:08:41;4.57;;;2.22;;
17606;SDS011;69222;52.242;20.980;2023-07-31T07:11:09;4.28;;;2.10;;
17606;SDS011;69222;52.242;20.980;2023-07-31T07:13:37;2.95;;;2.50;;
17606;SDS011;69222;52.242;20.980;2023-07-31T07:16:08;5.35;;;2.70;;
17606;SDS011;69222;52.242;20.980;2023-07-31T07:18:36;5.35;;;2.90;;
17606;SDS011;69222;52.242;20.980;2023-07-31T07:21:23;6.72;;;2.47;;
17606;SDS011;69222;52.242;20.980;2023-07-31T07:23:51;4.28;;;2.40;;
17606;SDS011;69222;52.242;20.980;2023-07-31T07:26:19;3.05;;;2.17;;
17606;SDS011;69222;52.242;20.980;2023-07-31T07:28:47;3.85;;;2.30;;
17606;SDS011;69222;52.242;20.980;2023-07-31T07:31:16;2.88;;;2.17;;
17606;SDS011;69222;52.242;20.980;2023-07-31T07:34:10;4.35;;;2.30;;
17606;SDS011;69222;52.242;20.980;2023-07-31T07:36:38;3.50;;;2.03;;
17606;SDS011;69222;52.242;20.980;2023-07-31T07:39:08;4.03;;;2.38;;
17606;SDS011;69222;52.242;20.980;2023-07-31T07:41:37;3.85;;;2.10;;
17606;SDS011;69222;52.242;20.980;2023-07-31T07:44:07;4.22;;;2.20;;
17606;SDS011;69222;52.242;20.980;2023-07-31T07:46:37;4.38;;;1.80;;
17606;SDS011;69222;52.242;20.980;2023-07-31T07:49:05;3.13;;;1.88;;
17606;SDS011;69222;52.242;20.980;2023-07-31T07:51:33;3.58;;;2.05;;
17606;SDS011;69222;52.242;20.980;2023-07-31T07:54:01;3.42;;;2.00;;
17606;SDS011;69222;52.242;20.980;2023-07-31T07:56:29;3.45;;;1.70;;
17606;SDS011;69222;52.242;20.980;2023-07-31T07:58:57;5.63;;;2.00;;
17606;SDS011;69222;52.242;20.980;2023-07-31T08:01:25;2.92;;;2.40;;
17606;SDS011;69222;52.242;20.980;2023-07-31T08:03:55;5.78;;;2.20;;
17606;SDS011;69222;52.242;20.980;2023-07-31T08:06:23;4.05;;;2.00;;
17606;SDS011;69222;52.242;20.980;2023-07-31T08:08:51;2.97;;;1.75;;
17606;SDS011;69222;52.242;20.980;2023-07-31T08:11:19;2.90;;;1.98;;
17606;SDS011;69222;52.242;20.980;2023-07-31T08:13:48;2.40;;;1.67;;
17606;SDS011;69222;52.242;20.980;2023-07-31T08:16:16;4.15;;;1.83;;
17606;SDS011;69222;52.242;20.980;2023-07-31T08:18:44;2.45;;;1.55;;
17606;SDS011;69222;52.242;20.980;2023-07-31T08:21:14;3.40;;;2.10;;
17606;SDS011;69222;52.242;20.980;2023-07-31T08:23:42;2.97;;;1.77;;
17606;SDS011;69222;52.242;20.980;2023-07-31T08:26:14;2.60;;;2.10;;
17606;SDS011;69222;52.242;20.980;2023-07-31T08:28:42;2.20;;;1.65;;
17606;SDS011;69222;52.242;20.980;2023-07-31T08:31:10;3.65;;;1.67;;
17606;SDS011;69222;52.242;20.980;2023-07-31T08:33:39;2.05;;;1.85;;
17606;SDS011;69222;52.242;20.980;2023-07-31T08:36:07;5.30;;;1.98;;
17606;SDS011;69222;52.242;20.980;2023-07-31T08:38:37;3.22;;;1.67;;
17606;SDS011;69222;52.242;20.980;2023-07-31T08:41:08;3.55;;;1.90;;
17606;SDS011;69222;52.242;20.980;2023-07-31T08:43:36;3.15;;;1.95;;
17606;SDS011;69222;52.242;20.980;2023-07-31T08:46:05;4.32;;;2.15;;
17606;SDS011;69222;52.242;20.980;2023-07-31T08:48:35;4.22;;;1.88;;
17606;SDS011;69222;52.242;20.980;2023-07-31T08:51:05;3.30;;;1.92;;
17606;SDS011;69222;52.242;20.980;2023-07-31T08:53:34;4.80;;;2.00;;
17606;SDS011;69222;52.242;20.980;2023-07-31T08:56:03;3.13;;;2.25;;
17606;SDS011;69222;52.242;20.980;2023-07-31T08:58:36;2.17;;;1.73;;
17606;SDS011;69222;52.242;20.980;2023-07-31T09:01:05;3.80;;;2.03;;
17606;SDS011;69222;52.242;20.980;2023-07-31T09:03:35;2.83;;;2.10;;
17606;SDS011;69222;52.242;20.980;2023-07-31T09:06:07;2.42;;;1.70;;
17606;SDS011;69222;52.242;20.980;2023-07-31T09:08:35;2.95;;;1.55;;
17606;SDS011;69222;52.242;20.980;2023-07-31T09:11:10;8.93;;;2.15;;
17606;SDS011;69222;52.242;20.980;2023-07-31T09:13:39;5.18;;;2.20;;
17606;SDS011;69222;52.242;20.980;2023-07-31T09:16:08;2.85;;;1.80;;
17606;SDS011;69222;52.242;20.980;2023-07-31T09:18:46;6.97;;;2.08;;
17606;SDS011;69222;52.242;20.980;2023-07-31T09:21:21;3.63;;;1.77;;
17606;SDS011;69222;52.242;20.980;2023-07-31T09:23:49;1.90;;;1.60;;
17606;SDS011;69222;52.242;20.980;2023-07-31T09:26:30;4.03;;;1.58;;
17606;SDS011;69222;52.242;20.980;2023-07-31T09:29:00;2.33;;;1.60;;
17606;SDS011;69222;52.242;20.980;2023-07-31T09:31:31;2.53;;;1.63;;
17606;SDS011;69222;52.242;20.980;2023-07-31T09:34:00;3.65;;;1.70;;
17606;SDS011;69222;52.242;20.980;2023-07-31T09:36:29;2.85;;;1.88;;
17606;SDS011;69222;52.242;20.980;2023-07-31T09:39:01;3.13;;;1.73;;
17606;SDS011;69222;52.242;20.980;2023-07-31T09:41:31;3.65;;;1.70;;
17606;SDS011;69222;52.242;20.980;2023-07-31T09:44:04;3.20;;;1.35;;
17606;SDS011;69222;52.242;20.980;2023-07-31T09:46:34;7.68;;;2.03;;
17606;SDS011;69222;52.242;20.980;2023-07-31T09:49:04;1.98;;;1.45;;
17606;SDS011;69222;52.242;20.980;2023-07-31T09:51:34;4.25;;;2.15;;
17606;SDS011;69222;52.242;20.980;2023-07-31T09:54:10;3.55;;;1.73;;
17606;SDS011;69222;52.242;20.980;2023-07-31T09:56:42;2.50;;;1.50;;
17606;SDS011;69222;52.242;20.980;2023-07-31T09:59:12;1.73;;;1.55;;
17606;SDS011;69222;52.242;20.980;2023-07-31T10:01:42;3.67;;;1.45;;
17606;SDS011;69222;52.242;20.980;2023-07-31T10:04:12;4.07;;;1.73;;
17606;SDS011;69222;52.242;20.980;2023-07-31T10:06:42;3.10;;;1.70;;
17606;SDS011;69222;52.242;20.980;2023-07-31T10:09:14;1.88;;;1.30;;
17606;SDS011;69222;52.242;20.980;2023-07-31T10:11:50;1.17;;;1.08;;
17606;SDS011;69222;52.242;20.980;2023-07-31T10:14:22;1.73;;;1.30;;
17606;SDS011;69222;52.242;20.980;2023-07-31T10:17:02;4.25;;;1.17;;
17606;SDS011;69222;52.242;20.980;2023-07-31T10:19:32;1.60;;;1.15;;
17606;SDS011;69222;52.242;20.980;2023-07-31T10:22:05;3.00;;;1.40;;
17606;SDS011;69222;52.242;20.980;2023-07-31T10:24:39;5.13;;;1.35;;
17606;SDS011;69222;52.242;20.980;2023-07-31T10:27:12;2.33;;;1.30;;
17606;SDS011;69222;52.242;20.980;2023-07-31T10:29:41;2.88;;;1.38;;
17606;SDS011;69222;52.242;20.980;2023-07-31T10:32:11;3.33;;;1.20;;
17606;SDS011;69222;52.242;20.980;2023-07-31T10:34:40;2.25;;;1.13;;
17606;SDS011;69222;52.242;20.980;2023-07-31T10:37:22;1.70;;;1.15;;
17606;SDS011;69222;52.242;20.980;2023-07-31T10:39:55;2.78;;;1.27;;
17606;SDS011;69222;52.242;20.980;2023-07-31T10:42:29;2.15;;;1.23;;
17606;SDS011;69222;52.242;20.980;2023-07-31T10:44:58;3.55;;;1.30;;
17606;SDS011;69222;52.242;20.980;2023-07-31T10:47:27;1.63;;;1.20;;
17606;SDS011;69222;52.242;20.980;2023-07-31T10:50:11;2.30;;;1.00;;
17606;SDS011;69222;52.242;20.980;2023-07-31T10:52:42;1.73;;;0.95;;
17606;SDS011;69222;52.242;20.980;2023-07-31T10:55:15;4.13;;;1.20;;
17606;SDS011;69222;52.242;20.980;2023-07-31T10:57:52;2.05;;;1.10;;
17606;SDS011;69222;52.242;20.980;2023-07-31T11:00:21;2.40;;;0.98;;
17606;SDS011;69222;52.242;20.980;2023-07-31T11:02:58;1.75;;;1.08;;
17606;SDS011;69222;52.242;20.980;2023-07-31T11:05:46;1.17;;;1.08;;
17606;SDS011;69222;52.242;20.980;2023-07-31T11:08:17;2.08;;;1.13;;
17606;SDS011;69222;52.242;20.980;2023-07-31T11:10:46;1.70;;;0.90;;
17606;SDS011;69222;52.242;20.980;2023-07-31T11:13:16;1.65;;;0.88;;
17606;SDS011;69222;52.242;20.980;2023-07-31T11:15:44;2.03;;;1.00;;
17606;SDS011;69222;52.242;20.980;2023-07-31T11:18:12;1.88;;;0.88;;
17606;SDS011;69222;52.242;20.980;2023-07-31T11:20:41;2.92;;;1.10;;
17606;SDS011;69222;52.242;20.980;2023-07-31T11:23:10;2.00;;;1.40;;
17606;SDS011;69222;52.242;20.980;2023-07-31T11:25:39;1.20;;;0.73;;
17606;SDS011;69222;52.242;20.980;2023-07-31T11:28:09;1.23;;;1.02;;
17606;SDS011;69222;52.242;20.980;2023-07-31T11:30:39;1.40;;;1.00;;
17606;SDS011;69222;52.242;20.980;2023-07-31T11:33:09;3.38;;;1.08;;
17606;SDS011;69222;52.242;20.980;2023-07-31T11:35:41;0.95;;;0.90;;
17606;SDS011;69222;52.242;20.980;2023-07-31T11:38:11;3.15;;;1.23;;
17606;SDS011;69222;52.242;20.980;2023-07-31T11:40:43;2.30;;;0.90;;
17606;SDS011;69222;52.242;20.980;2023-07-31T11:43:12;1.90;;;0.88;;
17606;SDS011;69222;52.242;20.980;2023-07-31T11:45:46;3.40;;;1.02;;
17606;SDS011;69222;52.242;20.980;2023-07-31T11:48:18;1.88;;;1.15;;
17606;SDS011;69222;52.242;20.980;2023-07-31T11:50:48;1.27;;;0.75;;
17606;SDS011;69222;52.242;20.980;2023-07-31T11:53:19;2.03;;;0.90;;
17606;SDS011;69222;52.242;20.980;2023-07-31T11:55:49;1.52;;;1.00;;
17606;SDS011;69222;52.242;20.980;2023-07-31T11:58:18;2.55;;;1.10;;
17606;SDS011;69222;52.242;20.980;2023-07-31T12:00:49;2.03;;;1.02;;
17606;SDS011;69222;52.242;20.980;2023-07-31T12:03:18;1.27;;;1.00;;
17606;SDS011;69222;52.242;20.980;2023-07-31T12:05:47;1.52;;;0.77;;
17606;SDS011;69222;52.242;20.980;2023-07-31T12:08:16;1.40;;;1.25;;
17606;SDS011;69222;52.242;20.980;2023-07-31T12:10:44;2.05;;;0.90;;
17606;SDS011;69222;52.242;20.980;2023-07-31T12:13:19;1.98;;;1.00;;
17606;SDS011;69222;52.242;20.980;2023-07-31T12:15:53;2.70;;;1.27;;
17606;SDS011;69222;52.242;20.980;2023-07-31T12:18:24;4.20;;;1.10;;
17606;SDS011;69222;52.242;20.980;2023-07-31T12:20:54;1.42;;;1.10;;
17606;SDS011;69222;52.242;20.980;2023-07-31T12:23:24;4.07;;;1.50;;
17606;SDS011;69222;52.242;20.980;2023-07-31T12:26:01;3.83;;;1.30;;
17606;SDS011;69222;52.242;20.980;2023-07-31T12:28:29;1.67;;;1.00;;
17606;SDS011;69222;52.242;20.980;2023-07-31T12:31:00;4.57;;;1.38;;
17606;SDS011;69222;52.242;20.980;2023-07-31T12:33:30;3.35;;;1.35;;
17606;SDS011;69222;52.242;20.980;2023-07-31T12:36:00;1.52;;;1.05;;
17606;SDS011;69222;52.242;20.980;2023-07-31T12:38:30;1.67;;;1.23;;
17606;SDS011;69222;52.242;20.980;2023-07-31T12:40:58;2.50;;;1.30;;
17606;SDS011;69222;52.242;20.980;2023-07-31T12:43:26;2.67;;;1.10;;
17606;SDS011;69222;52.242;20.980;2023-07-31T12:45:54;2.78;;;1.45;;
17606;SDS011;69222;52.242;20.980;2023-07-31T12:48:24;1.35;;;1.20;;
17606;SDS011;69222;52.242;20.980;2023-07-31T12:50:53;2.45;;;1.30;;
17606;SDS011;69222;52.242;20.980;2023-07-31T12:53:21;4.70;;;1.55;;
17606;SDS011;69222;52.242;20.980;2023-07-31T12:55:48;3.97;;;1.20;;
17606;SDS011;69222;52.242;20.980;2023-07-31T12:58:17;1.98;;;1.42;;
17606;SDS011;69222;52.242;20.980;2023-07-31T13:00:45;3.15;;;1.20;;
17606;SDS011;69222;52.242;20.980;2023-07-31T13:03:13;2.05;;;1.00;;
17606;SDS011;69222;52.242;20.980;2023-07-31T13:05:42;1.73;;;1.30;;
17606;SDS011;69222;52.242;20.980;2023-07-31T13:08:10;2.00;;;1.00;;
17606;SDS011;69222;52.242;20.980;2023-07-31T13:10:38;4.43;;;1.30;;
17606;SDS011;69222;52.242;20.980;2023-07-31T13:13:06;2.63;;;1.10;;
17606;SDS011;69222;52.242;20.980;2023-07-31T13:15:34;3.58;;;1.10;;
17606;SDS011;69222;52.242;20.980;2023-07-31T13:18:02;4.32;;;1.20;;
17606;SDS011;69222;52.242;20.980;2023-07-31T13:20:31;2.70;;;1.50;;
17606;SDS011;69222;52.242;20.980;2023-07-31T13:23:00;2.45;;;1.23;;
17606;SDS011;69222;52.242;20.980;2023-07-31T13:25:28;2.13;;;1.10;;
17606;SDS011;69222;52.242;20.980;2023-07-31T13:27:56;3.22;;;1.23;;
17606;SDS011;69222;52.242;20.980;2023-07-31T13:30:28;3.90;;;1.42;;
17606;SDS011;69222;52.242;20.980;2023-07-31T13:32:56;4.72;;;1.40;;
17606;SDS011;69222;52.242;20.980;2023-07-31T13:35:24;5.20;;;1.35;;
17606;SDS011;69222;52.242;20.980;2023-07-31T13:37:53;3.90;;;1.52;;
17606;SDS011;69222;52.242;20.980;2023-07-31T13:40:22;2.80;;;1.70;;
17606;SDS011;69222;52.242;20.980;2023-07-31T13:42:50;4.05;;;1.25;;
17606;SDS011;69222;52.242;20.980;2023-07-31T13:45:19;2.80;;;1.20;;
17606;SDS011;69222;52.242;20.980;2023-07-31T13:47:46;1.80;;;1.10;;
17606;SDS011;69222;52.242;20.980;2023-07-31T13:50:15;4.68;;;1.20;;
17606;SDS011;69222;52.242;20.980;2023-07-31T13:52:43;3.22;;;1.15;;
17606;SDS011;69222;52.242;20.980;2023-07-31T13:55:11;3.50;;;1.38;;
17606;SDS011;69222;52.242;20.980;2023-07-31T13:57:40;3.78;;;1.17;;
17606;SDS011;69222;52.242;20.980;2023-07-31T14:00:09;3.42;;;1.20;;
17606;SDS011;69222;52.242;20.980;2023-07-31T14:02:38;2.08;;;1.20;;
17606;SDS011;69222;52.242;20.980;2023-07-31T14:05:06;3.42;;;1.10;;
17606;SDS011;69222;52.242;20.980;2023-07-31T14:07:35;3.15;;;1.30;;
17606;SDS011;69222;52.242;20.980;2023-07-31T14:10:04;4.47;;;1.25;;
17606;SDS011;69222;52.242;20.980;2023-07-31T14:12:32;2.83;;;1.20;;
17606;SDS011;69222;52.242;20.980;2023-07-31T14:15:10;1.45;;;1.17;;
17606;SDS011;69222;52.242;20.980;2023-07-31T14:17:38;2.05;;;1.10;;
17606;SDS011;69222;52.242;20.980;2023-07-31T14:20:07;2.83;;;1.60;;
17606;SDS011;69222;52.242;20.980;2023-07-31T14:22:36;2.35;;;1.20;;
17606;SDS011;69222;52.242;20.980;2023-07-31T14:25:05;3.47;;;1.33;;
17606;SDS011;69222;52.242;20.980;2023-07-31T14:27:33;2.28;;;1.30;;
17606;SDS011;69222;52.242;20.980;2023-07-31T14:30:01;2.85;;;1.23;;
17606;SDS011;69222;52.242;20.980;2023-07-31T14:32:31;3.28;;;1.40;;
17606;SDS011;69222;52.242;20.980;2023-07-31T14:34:59;4.93;;;1.63;;
17606;SDS011;69222;52.242;20.980;2023-07-31T14:37:28;4.28;;;1.63;;
17606;SDS011;69222;52.242;20.980;2023-07-31T14:40:05;2.33;;;1.45;;
17606;SDS011;69222;52.242;20.980;2023-07-31T14:42:34;5.22;;;1.90;;
17606;SDS011;69222;52.242;20.980;2023-07-31T14:45:02;1.65;;;1.27;;
17606;SDS011;69222;52.242;20.980;2023-07-31T14:47:32;3.20;;;1.45;;
17606;SDS011;69222;52.242;20.980;2023-07-31T14:50:01;2.65;;;1.17;;
17606;SDS011;69222;52.242;20.980;2023-07-31T14:52:29;2.72;;;1.38;;
17606;SDS011;69222;52.242;20.980;2023-07-31T14:54:57;3.60;;;1.60;;